sensor_id;sensor_type;location;lat;lon;timestamp;temperature;humidity
45339;DHT22;31071;51.478;5.710;2022-08-07T00:01:07;13.90;99.90
45339;DHT22;31071;51.478;5.710;2022-08-07T00:03:33;13.80;99.90
45339;DHT22;31071;51.478;5.710;2022-08-07T00:05:59;13.70;99.90
45339;DHT22;31071;51.478;5.710;2022-08-07T00:08:24;13.70;99.90
45339;DHT22;31071;51.478;5.710;2022-08-07T00:10:50;13.60;99.90
45339;DHT22;31071;51.478;5.710;2022-08-07T00:13:17;13.60;99.90
45339;DHT22;31071;51.478;5.710;2022-08-07T00:15:43;13.50;99.90
45339;DHT22;31071;51.478;5.710;2022-08-07T00:18:09;13.40;99.90
45339;DHT22;31071;51.478;5.710;2022-08-07T00:20:37;13.40;99.90
45339;DHT22;31071;51.478;5.710;2022-08-07T00:23:03;13.40;99.90
45339;DHT22;31071;51.478;5.710;2022-08-07T00:25:30;13.30;99.90
45339;DHT22;31071;51.478;5.710;2022-08-07T00:27:56;13.40;99.90
45339;DHT22;31071;51.478;5.710;2022-08-07T00:30:23;13.30;99.90
45339;DHT22;31071;51.478;5.710;2022-08-07T00:32:49;13.30;99.90
45339;DHT22;31071;51.478;5.710;2022-08-07T00:35:16;13.20;99.90
45339;DHT22;31071;51.478;5.710;2022-08-07T00:37:43;13.10;99.90
45339;DHT22;31071;51.478;5.710;2022-08-07T00:40:09;13.10;99.90
45339;DHT22;31071;51.478;5.710;2022-08-07T00:42:35;13.00;99.90
45339;DHT22;31071;51.478;5.710;2022-08-07T00:45:00;12.90;99.90
45339;DHT22;31071;51.478;5.710;2022-08-07T00:47:27;12.90;99.90
45339;DHT22;31071;51.478;5.710;2022-08-07T00:49:53;12.90;99.90
45339;DHT22;31071;51.478;5.710;2022-08-07T00:52:18;12.80;99.90
45339;DHT22;31071;51.478;5.710;2022-08-07T00:54:44;12.80;99.90
45339;DHT22;31071;51.478;5.710;2022-08-07T00:57:17;12.70;99.90
45339;DHT22;31071;51.478;5.710;2022-08-07T00:59:43;12.70;99.90
45339;DHT22;31071;51.478;5.710;2022-08-07T01:02:09;12.60;99.90
45339;DHT22;31071;51.478;5.710;2022-08-07T01:04:37;12.50;99.90
45339;DHT22;31071;51.478;5.710;2022-08-07T01:07:16;12.50;99.90
45339;DHT22;31071;51.478;5.710;2022-08-07T01:09:43;12.50;99.90
45339;DHT22;31071;51.478;5.710;2022-08-07T01:12:08;12.40;99.90
45339;DHT22;31071;51.478;5.710;2022-08-07T01:14:34;12.40;99.90
45339;DHT22;31071;51.478;5.710;2022-08-07T01:17:02;12.40;99.90
45339;DHT22;31071;51.478;5.710;2022-08-07T01:19:29;12.40;99.90
45339;DHT22;31071;51.478;5.710;2022-08-07T01:21:55;12.40;99.90
45339;DHT22;31071;51.478;5.710;2022-08-07T01:24:21;12.30;99.90
45339;DHT22;31071;51.478;5.710;2022-08-07T01:26:49;12.30;99.90
45339;DHT22;31071;51.478;5.710;2022-08-07T01:29:16;12.30;99.90
45339;DHT22;31071;51.478;5.710;2022-08-07T01:31:42;12.20;99.90
45339;DHT22;31071;51.478;5.710;2022-08-07T01:34:07;12.20;99.90
45339;DHT22;31071;51.478;5.710;2022-08-07T01:36:33;12.10;99.90
45339;DHT22;31071;51.478;5.710;2022-08-07T01:39:00;12.10;99.90
45339;DHT22;31071;51.478;5.710;2022-08-07T01:41:26;12.00;99.90
45339;DHT22;31071;51.478;5.710;2022-08-07T01:43:52;12.00;99.90
45339;DHT22;31071;51.478;5.710;2022-08-07T01:46:19;12.00;99.90
45339;DHT22;31071;51.478;5.710;2022-08-07T01:48:46;12.00;99.90
45339;DHT22;31071;51.478;5.710;2022-08-07T01:51:16;11.90;99.90
45339;DHT22;31071;51.478;5.710;2022-08-07T01:53:45;11.90;99.90
45339;DHT22;31071;51.478;5.710;2022-08-07T01:59:17;11.90;99.90
45339;DHT22;31071;51.478;5.710;2022-08-07T02:01:50;11.80;99.90
45339;DHT22;31071;51.478;5.710;2022-08-07T02:04:27;11.70;99.90
45339;DHT22;31071;51.478;5.710;2022-08-07T02:06:56;11.70;99.90
45339;DHT22;31071;51.478;5.710;2022-08-07T02:09:24;11.70;99.90
45339;DHT22;31071;51.478;5.710;2022-08-07T02:11:51;11.70;99.90
45339;DHT22;31071;51.478;5.710;2022-08-07T02:14:19;11.70;99.90
45339;DHT22;31071;51.478;5.710;2022-08-07T02:16:46;11.60;99.90
45339;DHT22;31071;51.478;5.710;2022-08-07T02:19:15;11.70;99.90
45339;DHT22;31071;51.478;5.710;2022-08-07T02:21:42;11.60;99.90
45339;DHT22;31071;51.478;5.710;2022-08-07T02:24:09;11.70;99.90
45339;DHT22;31071;51.478;5.710;2022-08-07T02:26:37;11.60;99.90
45339;DHT22;31071;51.478;5.710;2022-08-07T02:29:05;11.60;99.90
45339;DHT22;31071;51.478;5.710;2022-08-07T02:31:32;11.60;99.90
45339;DHT22;31071;51.478;5.710;2022-08-07T02:34:00;11.60;99.90
45339;DHT22;31071;51.478;5.710;2022-08-07T02:36:28;11.50;99.90
45339;DHT22;31071;51.478;5.710;2022-08-07T02:38:55;11.50;99.90
45339;DHT22;31071;51.478;5.710;2022-08-07T02:41:22;11.50;99.90
45339;DHT22;31071;51.478;5.710;2022-08-07T02:43:49;11.50;99.90
45339;DHT22;31071;51.478;5.710;2022-08-07T02:46:24;11.40;99.90
45339;DHT22;31071;51.478;5.710;2022-08-07T02:48:50;11.40;99.90
45339;DHT22;31071;51.478;5.710;2022-08-07T02:51:18;11.40;99.90
45339;DHT22;31071;51.478;5.710;2022-08-07T02:53:45;11.40;99.90
45339;DHT22;31071;51.478;5.710;2022-08-07T02:56:17;11.40;99.90
45339;DHT22;31071;51.478;5.710;2022-08-07T02:58:43;11.40;99.90
45339;DHT22;31071;51.478;5.710;2022-08-07T03:01:10;11.40;99.90
45339;DHT22;31071;51.478;5.710;2022-08-07T03:03:37;11.40;99.90
45339;DHT22;31071;51.478;5.710;2022-08-07T03:06:03;11.40;99.90
45339;DHT22;31071;51.478;5.710;2022-08-07T03:08:30;11.40;99.90
45339;DHT22;31071;51.478;5.710;2022-08-07T03:10:56;11.30;99.90
45339;DHT22;31071;51.478;5.710;2022-08-07T03:13:22;11.40;99.90
45339;DHT22;31071;51.478;5.710;2022-08-07T03:15:49;11.40;99.90
45339;DHT22;31071;51.478;5.710;2022-08-07T03:18:15;11.30;99.90
45339;DHT22;31071;51.478;5.710;2022-08-07T03:20:41;11.30;99.90
45339;DHT22;31071;51.478;5.710;2022-08-07T03:23:08;11.30;99.90
45339;DHT22;31071;51.478;5.710;2022-08-07T03:25:36;11.30;99.90
45339;DHT22;31071;51.478;5.710;2022-08-07T03:28:03;11.20;99.90
45339;DHT22;31071;51.478;5.710;2022-08-07T03:30:31;11.20;99.90
45339;DHT22;31071;51.478;5.710;2022-08-07T03:32:58;11.20;99.90
45339;DHT22;31071;51.478;5.710;2022-08-07T03:35:27;11.00;99.90
45339;DHT22;31071;51.478;5.710;2022-08-07T03:37:56;11.00;99.90
45339;DHT22;31071;51.478;5.710;2022-08-07T03:40:24;11.00;99.90
45339;DHT22;31071;51.478;5.710;2022-08-07T03:42:50;11.00;99.90
45339;DHT22;31071;51.478;5.710;2022-08-07T03:45:18;11.00;99.90
45339;DHT22;31071;51.478;5.710;2022-08-07T03:47:43;11.00;99.90
45339;DHT22;31071;51.478;5.710;2022-08-07T03:50:09;11.00;99.90
45339;DHT22;31071;51.478;5.710;2022-08-07T03:52:38;11.10;99.90
45339;DHT22;31071;51.478;5.710;2022-08-07T03:55:04;11.00;99.90
45339;DHT22;31071;51.478;5.710;2022-08-07T03:57:31;10.90;99.90
45339;DHT22;31071;51.478;5.710;2022-08-07T03:59:57;10.90;99.90
45339;DHT22;31071;51.478;5.710;2022-08-07T04:02:23;10.80;99.90
45339;DHT22;31071;51.478;5.710;2022-08-07T04:04:49;10.80;99.90
45339;DHT22;31071;51.478;5.710;2022-08-07T04:07:16;10.80;99.90
45339;DHT22;31071;51.478;5.710;2022-08-07T04:09:44;10.80;99.90
45339;DHT22;31071;51.478;5.710;2022-08-07T04:12:12;10.80;99.90
45339;DHT22;31071;51.478;5.710;2022-08-07T04:14:39;10.90;99.90
45339;DHT22;31071;51.478;5.710;2022-08-07T04:17:40;10.90;99.90
45339;DHT22;31071;51.478;5.710;2022-08-07T04:20:09;11.00;99.90
45339;DHT22;31071;51.478;5.710;2022-08-07T04:22:36;11.00;99.90
45339;DHT22;31071;51.478;5.710;2022-08-07T04:25:02;11.00;99.90
45339;DHT22;31071;51.478;5.710;2022-08-07T04:27:29;11.00;99.90
45339;DHT22;31071;51.478;5.710;2022-08-07T04:29:54;10.90;99.90
45339;DHT22;31071;51.478;5.710;2022-08-07T04:32:20;10.90;99.90
45339;DHT22;31071;51.478;5.710;2022-08-07T04:34:46;10.90;99.90
45339;DHT22;31071;51.478;5.710;2022-08-07T04:37:27;10.80;99.90
45339;DHT22;31071;51.478;5.710;2022-08-07T04:39:54;10.80;99.90
45339;DHT22;31071;51.478;5.710;2022-08-07T04:42:19;10.80;99.90
45339;DHT22;31071;51.478;5.710;2022-08-07T04:44:45;10.90;99.90
45339;DHT22;31071;51.478;5.710;2022-08-07T04:47:15;10.90;99.90
45339;DHT22;31071;51.478;5.710;2022-08-07T04:50:17;10.90;99.90
45339;DHT22;31071;51.478;5.710;2022-08-07T04:52:58;11.10;99.90
45339;DHT22;31071;51.478;5.710;2022-08-07T04:56:10;11.10;99.90
45339;DHT22;31071;51.478;5.710;2022-08-07T04:58:23;11.10;99.90
45339;DHT22;31071;51.478;5.710;2022-08-07T05:00:54;11.30;99.90
45339;DHT22;31071;51.478;5.710;2022-08-07T05:06:23;11.40;99.90
45339;DHT22;31071;51.478;5.710;2022-08-07T05:09:03;11.50;99.90
45339;DHT22;31071;51.478;5.710;2022-08-07T05:11:40;11.50;99.90
45339;DHT22;31071;51.478;5.710;2022-08-07T05:14:13;11.60;99.90
45339;DHT22;31071;51.478;5.710;2022-08-07T05:16:40;11.60;99.90
45339;DHT22;31071;51.478;5.710;2022-08-07T05:19:15;11.60;99.90
45339;DHT22;31071;51.478;5.710;2022-08-07T05:21:48;11.60;99.90
45339;DHT22;31071;51.478;5.710;2022-08-07T05:24:16;11.70;99.90
45339;DHT22;31071;51.478;5.710;2022-08-07T05:26:45;11.70;99.90
45339;DHT22;31071;51.478;5.710;2022-08-07T05:29:14;11.70;99.90
45339;DHT22;31071;51.478;5.710;2022-08-07T05:31:43;11.70;99.90
45339;DHT22;31071;51.478;5.710;2022-08-07T05:34:11;11.80;99.90
45339;DHT22;31071;51.478;5.710;2022-08-07T05:36:42;11.90;99.90
45339;DHT22;31071;51.478;5.710;2022-08-07T05:39:09;12.10;99.90
45339;DHT22;31071;51.478;5.710;2022-08-07T05:41:37;12.30;99.90
45339;DHT22;31071;51.478;5.710;2022-08-07T05:44:03;12.40;99.90
45339;DHT22;31071;51.478;5.710;2022-08-07T05:46:49;12.60;99.90
45339;DHT22;31071;51.478;5.710;2022-08-07T05:49:15;12.80;99.90
45339;DHT22;31071;51.478;5.710;2022-08-07T05:51:42;12.80;99.90
45339;DHT22;31071;51.478;5.710;2022-08-07T05:54:09;12.90;99.90
45339;DHT22;31071;51.478;5.710;2022-08-07T05:56:36;13.00;99.90
45339;DHT22;31071;51.478;5.710;2022-08-07T05:59:05;13.10;99.90
45339;DHT22;31071;51.478;5.710;2022-08-07T06:01:34;13.20;99.90
45339;DHT22;31071;51.478;5.710;2022-08-07T06:04:01;13.30;99.90
45339;DHT22;31071;51.478;5.710;2022-08-07T06:06:28;13.30;99.90
45339;DHT22;31071;51.478;5.710;2022-08-07T06:08:53;13.40;99.90
45339;DHT22;31071;51.478;5.710;2022-08-07T06:11:19;13.50;99.90
45339;DHT22;31071;51.478;5.710;2022-08-07T06:13:45;13.60;99.90
45339;DHT22;31071;51.478;5.710;2022-08-07T06:16:12;13.60;99.90
45339;DHT22;31071;51.478;5.710;2022-08-07T06:18:39;13.70;99.90
45339;DHT22;31071;51.478;5.710;2022-08-07T06:21:05;13.80;99.90
45339;DHT22;31071;51.478;5.710;2022-08-07T06:23:32;13.90;99.90
45339;DHT22;31071;51.478;5.710;2022-08-07T06:25:58;14.00;99.90
45339;DHT22;31071;51.478;5.710;2022-08-07T06:28:24;14.10;99.90
45339;DHT22;31071;51.478;5.710;2022-08-07T06:30:50;14.20;99.90
45339;DHT22;31071;51.478;5.710;2022-08-07T06:33:16;14.30;99.90
45339;DHT22;31071;51.478;5.710;2022-08-07T06:35:43;14.40;99.90
45339;DHT22;31071;51.478;5.710;2022-08-07T06:38:08;14.50;99.90
45339;DHT22;31071;51.478;5.710;2022-08-07T06:40:38;14.60;99.90
45339;DHT22;31071;51.478;5.710;2022-08-07T06:43:05;14.60;99.90
45339;DHT22;31071;51.478;5.710;2022-08-07T06:45:33;14.70;99.90
45339;DHT22;31071;51.478;5.710;2022-08-07T06:47:59;14.80;99.90
45339;DHT22;31071;51.478;5.710;2022-08-07T06:50:26;14.90;99.90
45339;DHT22;31071;51.478;5.710;2022-08-07T06:52:54;15.00;99.90
45339;DHT22;31071;51.478;5.710;2022-08-07T06:55:23;15.10;99.90
45339;DHT22;31071;51.478;5.710;2022-08-07T06:57:50;15.20;99.90
45339;DHT22;31071;51.478;5.710;2022-08-07T07:00:18;15.40;99.90
45339;DHT22;31071;51.478;5.710;2022-08-07T07:02:47;15.50;99.90
45339;DHT22;31071;51.478;5.710;2022-08-07T07:05:13;15.60;99.90
45339;DHT22;31071;51.478;5.710;2022-08-07T07:07:44;15.70;99.90
45339;DHT22;31071;51.478;5.710;2022-08-07T07:10:12;15.80;99.90
45339;DHT22;31071;51.478;5.710;2022-08-07T07:12:42;16.00;99.90
45339;DHT22;31071;51.478;5.710;2022-08-07T07:15:20;16.10;99.90
45339;DHT22;31071;51.478;5.710;2022-08-07T07:23:16;16.50;99.90
45339;DHT22;31071;51.478;5.710;2022-08-07T07:25:43;16.60;99.90
45339;DHT22;31071;51.478;5.710;2022-08-07T07:28:19;16.90;99.90
45339;DHT22;31071;51.478;5.710;2022-08-07T07:30:55;17.30;99.90
45339;DHT22;31071;51.478;5.710;2022-08-07T07:33:22;17.80;99.90
45339;DHT22;31071;51.478;5.710;2022-08-07T07:35:50;18.30;99.90
45339;DHT22;31071;51.478;5.710;2022-08-07T07:38:18;18.80;99.90
45339;DHT22;31071;51.478;5.710;2022-08-07T07:40:45;19.20;99.90
45339;DHT22;31071;51.478;5.710;2022-08-07T07:43:14;19.40;99.90
45339;DHT22;31071;51.478;5.710;2022-08-07T07:45:40;19.50;99.90
45339;DHT22;31071;51.478;5.710;2022-08-07T07:48:09;19.70;99.80
45339;DHT22;31071;51.478;5.710;2022-08-07T07:50:35;20.00;98.50
45339;DHT22;31071;51.478;5.710;2022-08-07T07:53:02;20.10;97.60
45339;DHT22;31071;51.478;5.710;2022-08-07T07:55:30;19.90;98.40
45339;DHT22;31071;51.478;5.710;2022-08-07T07:57:57;20.00;98.20
45339;DHT22;31071;51.478;5.710;2022-08-07T08:00:24;20.20;98.90
45339;DHT22;31071;51.478;5.710;2022-08-07T08:02:53;20.50;98.40
45339;DHT22;31071;51.478;5.710;2022-08-07T08:05:20;20.50;94.30
45339;DHT22;31071;51.478;5.710;2022-08-07T08:07:51;21.00;94.30
45339;DHT22;31071;51.478;5.710;2022-08-07T08:10:18;21.20;93.40
45339;DHT22;31071;51.478;5.710;2022-08-07T08:12:45;21.20;92.70
45339;DHT22;31071;51.478;5.710;2022-08-07T08:15:11;21.30;92.80
45339;DHT22;31071;51.478;5.710;2022-08-07T08:17:37;21.50;93.50
45339;DHT22;31071;51.478;5.710;2022-08-07T08:20:06;21.30;92.70
45339;DHT22;31071;51.478;5.710;2022-08-07T08:22:38;21.10;91.20
45339;DHT22;31071;51.478;5.710;2022-08-07T08:25:24;20.90;91.10
45339;DHT22;31071;51.478;5.710;2022-08-07T08:28:13;20.60;91.80
45339;DHT22;31071;51.478;5.710;2022-08-07T08:30:40;20.60;91.40
45339;DHT22;31071;51.478;5.710;2022-08-07T08:33:11;20.60;92.00
45339;DHT22;31071;51.478;5.710;2022-08-07T08:35:41;20.60;92.50
45339;DHT22;31071;51.478;5.710;2022-08-07T08:38:08;20.60;91.80
45339;DHT22;31071;51.478;5.710;2022-08-07T08:40:39;20.50;91.30
45339;DHT22;31071;51.478;5.710;2022-08-07T08:43:37;20.50;92.20
45339;DHT22;31071;51.478;5.710;2022-08-07T08:46:08;20.60;91.40
45339;DHT22;31071;51.478;5.710;2022-08-07T08:48:56;20.80;90.50
45339;DHT22;31071;51.478;5.710;2022-08-07T08:51:32;20.60;91.40
45339;DHT22;31071;51.478;5.710;2022-08-07T08:56:35;20.90;90.50
45339;DHT22;31071;51.478;5.710;2022-08-07T08:59:16;20.90;90.90
45339;DHT22;31071;51.478;5.710;2022-08-07T09:04:46;21.10;90.90
45339;DHT22;31071;51.478;5.710;2022-08-07T09:07:23;21.30;91.50
45339;DHT22;31071;51.478;5.710;2022-08-07T09:15:27;21.50;91.20
45339;DHT22;31071;51.478;5.710;2022-08-07T09:29:28;21.70;88.60
45339;DHT22;31071;51.478;5.710;2022-08-07T09:37:36;22.00;88.60
45339;DHT22;31071;51.478;5.710;2022-08-07T09:48:35;22.60;83.90
45339;DHT22;31071;51.478;5.710;2022-08-07T09:53:46;22.90;78.30
45339;DHT22;31071;51.478;5.710;2022-08-07T09:58:55;23.10;76.40
45339;DHT22;31071;51.478;5.710;2022-08-07T10:02:27;23.10;75.00
45339;DHT22;31071;51.478;5.710;2022-08-07T10:18:33;24.30;77.10
45339;DHT22;31071;51.478;5.710;2022-08-07T10:21:29;24.70;74.80
45339;DHT22;31071;51.478;5.710;2022-08-07T10:24:31;24.80;73.60
45339;DHT22;31071;51.478;5.710;2022-08-07T10:30:06;24.40;71.80
45339;DHT22;31071;51.478;5.710;2022-08-07T10:35:59;24.00;73.80
45339;DHT22;31071;51.478;5.710;2022-08-07T10:41:11;23.50;73.30
45339;DHT22;31071;51.478;5.710;2022-08-07T10:43:43;23.80;72.30
45339;DHT22;31071;51.478;5.710;2022-08-07T10:46:17;24.40;71.50
45339;DHT22;31071;51.478;5.710;2022-08-07T10:52:31;24.70;71.10
45339;DHT22;31071;51.478;5.710;2022-08-07T10:55:17;24.70;71.00
45339;DHT22;31071;51.478;5.710;2022-08-07T10:57:55;24.20;71.20
45339;DHT22;31071;51.478;5.710;2022-08-07T11:00:30;23.90;70.60
45339;DHT22;31071;51.478;5.710;2022-08-07T11:03:16;23.90;70.70
45339;DHT22;31071;51.478;5.710;2022-08-07T11:05:48;24.30;68.70
45339;DHT22;31071;51.478;5.710;2022-08-07T11:11:24;25.70;67.00
45339;DHT22;31071;51.478;5.710;2022-08-07T11:13:56;26.30;63.30
45339;DHT22;31071;51.478;5.710;2022-08-07T11:19:33;26.80;61.90
45339;DHT22;31071;51.478;5.710;2022-08-07T11:22:10;27.00;62.40
45339;DHT22;31071;51.478;5.710;2022-08-07T11:30:17;27.90;58.30
45339;DHT22;31071;51.478;5.710;2022-08-07T11:32:55;29.00;55.90
45339;DHT22;31071;51.478;5.710;2022-08-07T11:35:27;30.00;52.50
45339;DHT22;31071;51.478;5.710;2022-08-07T11:38:20;30.50;52.40
45339;DHT22;31071;51.478;5.710;2022-08-07T11:43:31;30.80;49.30
45339;DHT22;31071;51.478;5.710;2022-08-07T11:48:58;32.50;47.20
45339;DHT22;31071;51.478;5.710;2022-08-07T12:00:09;28.60;49.40
45339;DHT22;31071;51.478;5.710;2022-08-07T12:10:41;26.10;53.90
45339;DHT22;31071;51.478;5.710;2022-08-07T12:13:28;26.90;52.90
45339;DHT22;31071;51.478;5.710;2022-08-07T12:16:04;28.40;50.10
45339;DHT22;31071;51.478;5.710;2022-08-07T12:21:27;31.40;45.00
45339;DHT22;31071;51.478;5.710;2022-08-07T12:24:33;32.00;44.90
45339;DHT22;31071;51.478;5.710;2022-08-07T12:27:08;33.20;44.60
45339;DHT22;31071;51.478;5.710;2022-08-07T12:29:53;32.10;44.10
45339;DHT22;31071;51.478;5.710;2022-08-07T12:35:16;28.00;50.20
45339;DHT22;31071;51.478;5.710;2022-08-07T12:37:47;27.40;51.80
45339;DHT22;31071;51.478;5.710;2022-08-07T12:40:18;28.40;51.00
45339;DHT22;31071;51.478;5.710;2022-08-07T12:42:46;29.50;47.50
45339;DHT22;31071;51.478;5.710;2022-08-07T12:45:17;31.60;47.00
45339;DHT22;31071;51.478;5.710;2022-08-07T12:50:44;33.20;42.60
45339;DHT22;31071;51.478;5.710;2022-08-07T12:53:34;33.70;42.50
45339;DHT22;31071;51.478;5.710;2022-08-07T12:56:09;33.00;39.60
45339;DHT22;31071;51.478;5.710;2022-08-07T12:58:44;32.60;40.50
45339;DHT22;31071;51.478;5.710;2022-08-07T13:04:13;31.40;42.00
45339;DHT22;31071;51.478;5.710;2022-08-07T13:09:49;32.40;41.00
45339;DHT22;31071;51.478;5.710;2022-08-07T13:21:09;32.20;42.10
45339;DHT22;31071;51.478;5.710;2022-08-07T13:23:49;30.40;43.80
45339;DHT22;31071;51.478;5.710;2022-08-07T13:28:49;32.00;40.80
45339;DHT22;31071;51.478;5.710;2022-08-07T13:31:25;32.60;40.40
45339;DHT22;31071;51.478;5.710;2022-08-07T13:34:09;32.60;40.40
45339;DHT22;31071;51.478;5.710;2022-08-07T13:39:35;33.20;40.00
45339;DHT22;31071;51.478;5.710;2022-08-07T13:42:05;32.00;41.90
45339;DHT22;31071;51.478;5.710;2022-08-07T13:44:37;30.60;43.70
45339;DHT22;31071;51.478;5.710;2022-08-07T13:47:06;30.40;43.00
45339;DHT22;31071;51.478;5.710;2022-08-07T13:49:41;32.30;41.10
45339;DHT22;31071;51.478;5.710;2022-08-07T13:52:08;33.00;40.00
45339;DHT22;31071;51.478;5.710;2022-08-07T13:54:35;32.40;39.50
45339;DHT22;31071;51.478;5.710;2022-08-07T13:57:03;33.00;38.40
45339;DHT22;31071;51.478;5.710;2022-08-07T13:59:41;33.10;40.10
45339;DHT22;31071;51.478;5.710;2022-08-07T14:02:09;33.60;38.90
45339;DHT22;31071;51.478;5.710;2022-08-07T14:07:21;33.60;38.60
45339;DHT22;31071;51.478;5.710;2022-08-07T14:09:51;33.50;38.70
45339;DHT22;31071;51.478;5.710;2022-08-07T14:12:39;33.40;40.70
45339;DHT22;31071;51.478;5.710;2022-08-07T14:15:25;34.10;38.40
45339;DHT22;31071;51.478;5.710;2022-08-07T14:17:54;33.70;38.40
45339;DHT22;31071;51.478;5.710;2022-08-07T14:20:25;32.00;42.10
45339;DHT22;31071;51.478;5.710;2022-08-07T14:22:59;32.40;40.10
45339;DHT22;31071;51.478;5.710;2022-08-07T14:25:29;31.50;40.80
45339;DHT22;31071;51.478;5.710;2022-08-07T14:27:55;31.50;40.30
45339;DHT22;31071;51.478;5.710;2022-08-07T14:30:21;31.50;40.80
45339;DHT22;31071;51.478;5.710;2022-08-07T14:32:54;31.50;40.50
45339;DHT22;31071;51.478;5.710;2022-08-07T14:35:25;31.00;41.30
45339;DHT22;31071;51.478;5.710;2022-08-07T14:37:54;30.60;42.00
45339;DHT22;31071;51.478;5.710;2022-08-07T14:40:23;29.90;45.20
45339;DHT22;31071;51.478;5.710;2022-08-07T14:43:02;29.10;45.40
45339;DHT22;31071;51.478;5.710;2022-08-07T14:45:49;28.60;45.30
45339;DHT22;31071;51.478;5.710;2022-08-07T14:48:19;28.70;45.40
45339;DHT22;31071;51.478;5.710;2022-08-07T14:50:51;28.40;45.30
45339;DHT22;31071;51.478;5.710;2022-08-07T14:53:19;28.30;45.90
45339;DHT22;31071;51.478;5.710;2022-08-07T14:55:47;28.30;45.40
45339;DHT22;31071;51.478;5.710;2022-08-07T14:58:14;28.10;45.80
45339;DHT22;31071;51.478;5.710;2022-08-07T15:00:43;27.70;47.00
45339;DHT22;31071;51.478;5.710;2022-08-07T15:03:11;27.80;47.40
45339;DHT22;31071;51.478;5.710;2022-08-07T15:05:38;27.40;47.90
45339;DHT22;31071;51.478;5.710;2022-08-07T15:08:07;27.50;48.50
45339;DHT22;31071;51.478;5.710;2022-08-07T15:10:35;27.90;48.20
45339;DHT22;31071;51.478;5.710;2022-08-07T15:13:09;28.10;45.60
45339;DHT22;31071;51.478;5.710;2022-08-07T15:15:44;27.90;46.00
45339;DHT22;31071;51.478;5.710;2022-08-07T15:18:14;27.80;45.30
45339;DHT22;31071;51.478;5.710;2022-08-07T15:20:43;27.50;46.20
45339;DHT22;31071;51.478;5.710;2022-08-07T15:23:19;27.30;46.40
45339;DHT22;31071;51.478;5.710;2022-08-07T15:25:54;27.00;46.70
45339;DHT22;31071;51.478;5.710;2022-08-07T15:28:21;27.00;48.20
45339;DHT22;31071;51.478;5.710;2022-08-07T15:30:48;26.90;46.00
45339;DHT22;31071;51.478;5.710;2022-08-07T15:33:17;27.00;47.30
45339;DHT22;31071;51.478;5.710;2022-08-07T15:35:49;26.70;46.00
45339;DHT22;31071;51.478;5.710;2022-08-07T15:38:17;26.70;45.60
45339;DHT22;31071;51.478;5.710;2022-08-07T15:40:46;26.80;46.10
45339;DHT22;31071;51.478;5.710;2022-08-07T15:43:24;26.70;46.30
45339;DHT22;31071;51.478;5.710;2022-08-07T15:45:53;26.60;45.40
45339;DHT22;31071;51.478;5.710;2022-08-07T15:48:33;26.70;46.10
45339;DHT22;31071;51.478;5.710;2022-08-07T15:51:07;26.50;46.60
45339;DHT22;31071;51.478;5.710;2022-08-07T15:53:46;26.80;46.80
45339;DHT22;31071;51.478;5.710;2022-08-07T15:56:28;26.60;45.80
45339;DHT22;31071;51.478;5.710;2022-08-07T15:59:00;26.50;46.10
45339;DHT22;31071;51.478;5.710;2022-08-07T16:01:39;26.60;46.00
45339;DHT22;31071;51.478;5.710;2022-08-07T16:04:11;26.70;45.60
45339;DHT22;31071;51.478;5.710;2022-08-07T16:06:51;26.50;45.30
45339;DHT22;31071;51.478;5.710;2022-08-07T16:12:19;26.70;45.30
45339;DHT22;31071;51.478;5.710;2022-08-07T16:20:57;26.60;47.90
45339;DHT22;31071;51.478;5.710;2022-08-07T16:23:31;26.30;46.30
45339;DHT22;31071;51.478;5.710;2022-08-07T16:32:03;26.40;46.20
45339;DHT22;31071;51.478;5.710;2022-08-07T16:40:28;26.20;46.80
45339;DHT22;31071;51.478;5.710;2022-08-07T16:43:40;26.10;46.60
45339;DHT22;31071;51.478;5.710;2022-08-07T16:58:03;25.80;47.90
45339;DHT22;31071;51.478;5.710;2022-08-07T17:03:38;25.70;48.10
45339;DHT22;31071;51.478;5.710;2022-08-07T17:09:17;25.90;46.90
45339;DHT22;31071;51.478;5.710;2022-08-07T17:12:11;25.80;46.90
45339;DHT22;31071;51.478;5.710;2022-08-07T17:15:00;25.60;48.10
45339;DHT22;31071;51.478;5.710;2022-08-07T17:20:31;25.20;49.00
45339;DHT22;31071;51.478;5.710;2022-08-07T17:23:14;25.20;50.70
45339;DHT22;31071;51.478;5.710;2022-08-07T17:34:25;24.90;50.20
45339;DHT22;31071;51.478;5.710;2022-08-07T17:36:53;24.80;50.40
45339;DHT22;31071;51.478;5.710;2022-08-07T17:39:57;24.90;50.70
45339;DHT22;31071;51.478;5.710;2022-08-07T17:42:43;24.90;52.40
45339;DHT22;31071;51.478;5.710;2022-08-07T17:45:18;24.80;52.10
45339;DHT22;31071;51.478;5.710;2022-08-07T17:50:44;24.60;53.00
45339;DHT22;31071;51.478;5.710;2022-08-07T17:56:13;24.50;52.40
45339;DHT22;31071;51.478;5.710;2022-08-07T17:59:06;24.60;52.20
45339;DHT22;31071;51.478;5.710;2022-08-07T18:01:45;24.40;53.20
45339;DHT22;31071;51.478;5.710;2022-08-07T18:04:23;24.20;53.80
45339;DHT22;31071;51.478;5.710;2022-08-07T18:06:57;24.00;54.50
45339;DHT22;31071;51.478;5.710;2022-08-07T18:09:27;24.10;54.00
45339;DHT22;31071;51.478;5.710;2022-08-07T18:12:07;24.00;54.00
45339;DHT22;31071;51.478;5.710;2022-08-07T18:14:53;23.90;54.10
45339;DHT22;31071;51.478;5.710;2022-08-07T18:20:03;23.80;55.20
45339;DHT22;31071;51.478;5.710;2022-08-07T18:22:36;23.60;56.00
45339;DHT22;31071;51.478;5.710;2022-08-07T18:25:05;23.50;54.90
45339;DHT22;31071;51.478;5.710;2022-08-07T18:30:57;23.10;54.50
45339;DHT22;31071;51.478;5.710;2022-08-07T18:39:29;22.80;57.40
45339;DHT22;31071;51.478;5.710;2022-08-07T18:42:16;22.90;55.80
45339;DHT22;31071;51.478;5.710;2022-08-07T18:45:10;22.80;54.50
45339;DHT22;31071;51.478;5.710;2022-08-07T18:47:47;22.60;54.90
45339;DHT22;31071;51.478;5.710;2022-08-07T18:53:12;22.40;55.70
45339;DHT22;31071;51.478;5.710;2022-08-07T19:01:09;22.00;56.80
45339;DHT22;31071;51.478;5.710;2022-08-07T19:03:43;22.00;57.30
45339;DHT22;31071;51.478;5.710;2022-08-07T19:06:15;21.80;57.50
45339;DHT22;31071;51.478;5.710;2022-08-07T19:14:13;21.50;59.60
45339;DHT22;31071;51.478;5.710;2022-08-07T19:16:51;21.30;59.50
45339;DHT22;31071;51.478;5.710;2022-08-07T19:19:40;21.10;61.30
45339;DHT22;31071;51.478;5.710;2022-08-07T19:22:32;21.00;60.70
45339;DHT22;31071;51.478;5.710;2022-08-07T19:25:00;20.90;61.80
45339;DHT22;31071;51.478;5.710;2022-08-07T19:27:30;20.80;61.50
45339;DHT22;31071;51.478;5.710;2022-08-07T19:30:07;20.80;62.50
45339;DHT22;31071;51.478;5.710;2022-08-07T19:32:35;20.60;63.00
45339;DHT22;31071;51.478;5.710;2022-08-07T19:35:08;20.60;63.50
45339;DHT22;31071;51.478;5.710;2022-08-07T19:37:35;20.60;63.70
45339;DHT22;31071;51.478;5.710;2022-08-07T19:40:04;20.50;62.70
45339;DHT22;31071;51.478;5.710;2022-08-07T19:42:31;20.40;63.90
45339;DHT22;31071;51.478;5.710;2022-08-07T19:45:03;20.30;64.40